sensor_id;sensor_type;location;lat;lon;timestamp;P1;durP1;ratioP1;P2;durP2;ratioP2
74469;SDS011;62918;55.706;37.816;2023-04-07T00:00:18;4.70;;;0.98;;
74469;SDS011;62918;55.706;37.816;2023-04-07T00:00:51;2.95;;;1.08;;
74469;SDS011;62918;55.706;37.816;2023-04-07T00:01:21;3.65;;;1.02;;
74469;SDS011;62918;55.706;37.816;2023-04-07T00:01:52;1.80;;;0.70;;
74469;SDS011;62918;55.706;37.816;2023-04-07T00:02:23;2.92;;;0.90;;
74469;SDS011;62918;55.706;37.816;2023-04-07T00:02:53;3.28;;;0.88;;
74469;SDS011;62918;55.706;37.816;2023-04-07T00:03:27;2.72;;;1.10;;
74469;SDS011;62918;55.706;37.816;2023-04-07T00:03:58;2.85;;;1.05;;
74469;SDS011;62918;55.706;37.816;2023-04-07T00:04:28;2.78;;;1.17;;
74469;SDS011;62918;55.706;37.816;2023-04-07T00:04:59;2.85;;;1.05;;
74469;SDS011;62918;55.706;37.816;2023-04-07T00:05:31;3.80;;;0.90;;
74469;SDS011;62918;55.706;37.816;2023-04-07T00:06:05;3.63;;;1.20;;
74469;SDS011;62918;55.706;37.816;2023-04-07T00:06:36;4.15;;;1.15;;
74469;SDS011;62918;55.706;37.816;2023-04-07T00:07:09;4.93;;;1.40;;
74469;SDS011;62918;55.706;37.816;2023-04-07T00:07:45;6.50;;;1.60;;
74469;SDS011;62918;55.706;37.816;2023-04-07T00:08:16;3.40;;;2.20;;
74469;SDS011;62918;55.706;37.816;2023-04-07T00:08:49;4.00;;;2.33;;
74469;SDS011;62918;55.706;37.816;2023-04-07T00:09:20;4.13;;;2.60;;
74469;SDS011;62918;55.706;37.816;2023-04-07T00:09:53;4.50;;;2.90;;
74469;SDS011;62918;55.706;37.816;2023-04-07T00:10:24;6.20;;;3.05;;
74469;SDS011;62918;55.706;37.816;2023-04-07T00:10:58;5.93;;;3.10;;
74469;SDS011;62918;55.706;37.816;2023-04-07T00:11:31;6.10;;;2.70;;
74469;SDS011;62918;55.706;37.816;2023-04-07T00:12:02;7.10;;;3.60;;
74469;SDS011;62918;55.706;37.816;2023-04-07T00:12:33;6.82;;;3.33;;
74469;SDS011;62918;55.706;37.816;2023-04-07T00:13:07;5.10;;;3.47;;
74469;SDS011;62918;55.706;37.816;2023-04-07T00:13:38;6.32;;;3.40;;
74469;SDS011;62918;55.706;37.816;2023-04-07T00:14:11;6.40;;;3.45;;
74469;SDS011;62918;55.706;37.816;2023-04-07T00:14:42;8.02;;;3.55;;
74469;SDS011;62918;55.706;37.816;2023-04-07T00:15:15;5.43;;;2.92;;
74469;SDS011;62918;55.706;37.816;2023-04-07T00:15:46;7.55;;;3.20;;
74469;SDS011;62918;55.706;37.816;2023-04-07T00:16:22;6.40;;;2.92;;
74469;SDS011;62918;55.706;37.816;2023-04-07T00:16:56;5.38;;;2.70;;
74469;SDS011;62918;55.706;37.816;2023-04-07T00:17:29;7.88;;;2.85;;
74469;SDS011;62918;55.706;37.816;2023-04-07T00:18:00;4.85;;;2.75;;
74469;SDS011;62918;55.706;37.816;2023-04-07T00:18:33;4.55;;;2.25;;
74469;SDS011;62918;55.706;37.816;2023-04-07T00:19:03;6.82;;;2.65;;
74469;SDS011;62918;55.706;37.816;2023-04-07T00:19:34;4.78;;;2.35;;
74469;SDS011;62918;55.706;37.816;2023-04-07T00:20:05;4.05;;;2.42;;
74469;SDS011;62918;55.706;37.816;2023-04-07T00:20:36;5.60;;;2.40;;
74469;SDS011;62918;55.706;37.816;2023-04-07T00:21:07;5.43;;;2.90;;
74469;SDS011;62918;55.706;37.816;2023-04-07T00:21:38;4.78;;;2.53;;
74469;SDS011;62918;55.706;37.816;2023-04-07T00:22:08;6.13;;;2.72;;
74469;SDS011;62918;55.706;37.816;2023-04-07T00:22:39;8.15;;;3.08;;
74469;SDS011;62918;55.706;37.816;2023-04-07T00:23:10;4.55;;;2.70;;
74469;SDS011;62918;55.706;37.816;2023-04-07T00:23:42;5.20;;;2.42;;
74469;SDS011;62918;55.706;37.816;2023-04-07T00:24:13;4.63;;;2.28;;
74469;SDS011;62918;55.706;37.816;2023-04-07T00:24:47;6.47;;;3.15;;
74469;SDS011;62918;55.706;37.816;2023-04-07T00:25:17;5.10;;;2.80;;
74469;SDS011;62918;55.706;37.816;2023-04-07T00:25:51;4.57;;;2.85;;
74469;SDS011;62918;55.706;37.816;2023-04-07T00:26:21;6.57;;;2.65;;
74469;SDS011;62918;55.706;37.816;2023-04-07T00:26:55;5.88;;;3.10;;
74469;SDS011;62918;55.706;37.816;2023-04-07T00:27:25;6.20;;;2.22;;
74469;SDS011;62918;55.706;37.816;2023-04-07T00:27:56;4.72;;;2.47;;
74469;SDS011;62918;55.706;37.816;2023-04-07T00:28:27;4.07;;;2.17;;
74469;SDS011;62918;55.706;37.816;2023-04-07T00:28:58;5.30;;;2.55;;
74469;SDS011;62918;55.706;37.816;2023-04-07T00:29:29;5.50;;;2.50;;
74469;SDS011;62918;55.706;37.816;2023-04-07T00:29:59;3.97;;;2.25;;
74469;SDS011;62918;55.706;37.816;2023-04-07T00:30:30;4.03;;;2.30;;
74469;SDS011;62918;55.706;37.816;2023-04-07T00:31:01;6.70;;;2.22;;
74469;SDS011;62918;55.706;37.816;2023-04-07T00:31:31;4.35;;;2.15;;
74469;SDS011;62918;55.706;37.816;2023-04-07T00:32:02;4.75;;;2.30;;
74469;SDS011;62918;55.706;37.816;2023-04-07T00:32:32;5.65;;;2.15;;
74469;SDS011;62918;55.706;37.816;2023-04-07T00:33:03;5.13;;;2.22;;
74469;SDS011;62918;55.706;37.816;2023-04-07T00:33:33;6.38;;;2.88;;
74469;SDS011;62918;55.706;37.816;2023-04-07T00:34:04;7.18;;;3.40;;
74469;SDS011;62918;55.706;37.816;2023-04-07T00:34:35;4.75;;;3.13;;
74469;SDS011;62918;55.706;37.816;2023-04-07T00:35:06;6.10;;;3.60;;
74469;SDS011;62918;55.706;37.816;2023-04-07T00:35:37;5.97;;;3.42;;
74469;SDS011;62918;55.706;37.816;2023-04-07T00:36:07;11.50;;;4.40;;
74469;SDS011;62918;55.706;37.816;2023-04-07T00:36:38;8.75;;;4.25;;
74469;SDS011;62918;55.706;37.816;2023-04-07T00:37:09;7.43;;;4.60;;
74469;SDS011;62918;55.706;37.816;2023-04-07T00:37:39;12.13;;;4.80;;
74469;SDS011;62918;55.706;37.816;2023-04-07T00:38:10;7.78;;;5.00;;
74469;SDS011;62918;55.706;37.816;2023-04-07T00:38:40;9.57;;;5.28;;
74469;SDS011;62918;55.706;37.816;2023-04-07T00:39:11;7.60;;;4.93;;
74469;SDS011;62918;55.706;37.816;2023-04-07T00:39:42;7.68;;;4.57;;
74469;SDS011;62918;55.706;37.816;2023-04-07T00:40:12;7.93;;;4.90;;
74469;SDS011;62918;55.706;37.816;2023-04-07T00:40:43;8.50;;;5.32;;
74469;SDS011;62918;55.706;37.816;2023-04-07T00:41:13;8.68;;;4.82;;
74469;SDS011;62918;55.706;37.816;2023-04-07T00:41:45;7.75;;;5.07;;
74469;SDS011;62918;55.706;37.816;2023-04-07T00:42:16;7.68;;;5.47;;
74469;SDS011;62918;55.706;37.816;2023-04-07T00:42:47;9.57;;;5.15;;
74469;SDS011;62918;55.706;37.816;2023-04-07T00:43:17;9.35;;;4.80;;
74469;SDS011;62918;55.706;37.816;2023-04-07T00:43:49;7.90;;;4.07;;
74469;SDS011;62918;55.706;37.816;2023-04-07T00:44:20;6.63;;;4.25;;
74469;SDS011;62918;55.706;37.816;2023-04-07T00:44:51;7.60;;;4.40;;
74469;SDS011;62918;55.706;37.816;2023-04-07T00:45:21;7.63;;;3.25;;
74469;SDS011;62918;55.706;37.816;2023-04-07T00:45:52;6.35;;;3.42;;
74469;SDS011;62918;55.706;37.816;2023-04-07T00:46:23;6.28;;;4.40;;
74469;SDS011;62918;55.706;37.816;2023-04-07T00:46:53;6.53;;;3.40;;
74469;SDS011;62918;55.706;37.816;2023-04-07T00:47:24;6.05;;;2.95;;
74469;SDS011;62918;55.706;37.816;2023-04-07T00:47:55;5.63;;;3.13;;
74469;SDS011;62918;55.706;37.816;2023-04-07T00:48:57;5.13;;;2.50;;
74469;SDS011;62918;55.706;37.816;2023-04-07T00:49:29;6.80;;;2.30;;
74469;SDS011;62918;55.706;37.816;2023-04-07T00:50:02;4.70;;;2.45;;
74469;SDS011;62918;55.706;37.816;2023-04-07T00:50:34;4.32;;;2.13;;
74469;SDS011;62918;55.706;37.816;2023-04-07T00:51:04;4.32;;;2.30;;
74469;SDS011;62918;55.706;37.816;2023-04-07T00:51:36;4.85;;;2.00;;
74469;SDS011;62918;55.706;37.816;2023-04-07T00:52:06;5.30;;;2.70;;
74469;SDS011;62918;55.706;37.816;2023-04-07T00:52:37;4.18;;;2.17;;
74469;SDS011;62918;55.706;37.816;2023-04-07T00:53:09;4.65;;;2.10;;
74469;SDS011;62918;55.706;37.816;2023-04-07T00:53:43;6.03;;;2.17;;
74469;SDS011;62918;55.706;37.816;2023-04-07T00:54:13;6.13;;;2.10;;
74469;SDS011;62918;55.706;37.816;2023-04-07T00:54:44;4.38;;;1.83;;
74469;SDS011;62918;55.706;37.816;2023-04-07T00:55:15;7.78;;;1.85;;
74469;SDS011;62918;55.706;37.816;2023-04-07T00:55:46;4.45;;;1.77;;
74469;SDS011;62918;55.706;37.816;2023-04-07T00:56:17;4.30;;;1.80;;
74469;SDS011;62918;55.706;37.816;2023-04-07T00:56:47;6.22;;;1.90;;
74469;SDS011;62918;55.706;37.816;2023-04-07T00:57:18;4.20;;;1.40;;
74469;SDS011;62918;55.706;37.816;2023-04-07T00:57:48;4.70;;;1.75;;
74469;SDS011;62918;55.706;37.816;2023-04-07T00:58:20;2.70;;;1.60;;
74469;SDS011;62918;55.706;37.816;2023-04-07T00:58:51;5.90;;;1.63;;
74469;SDS011;62918;55.706;37.816;2023-04-07T00:59:22;3.42;;;1.98;;
74469;SDS011;62918;55.706;37.816;2023-04-07T00:59:53;4.75;;;1.33;;
74469;SDS011;62918;55.706;37.816;2023-04-07T01:00:25;3.92;;;1.50;;
74469;SDS011;62918;55.706;37.816;2023-04-07T01:01:04;5.60;;;1.50;;
74469;SDS011;62918;55.706;37.816;2023-04-07T01:02:02;3.85;;;1.02;;
74469;SDS011;62918;55.706;37.816;2023-04-07T01:02:47;4.47;;;1.83;;
74469;SDS011;62918;55.706;37.816;2023-04-07T01:03:29;4.72;;;1.48;;
74469;SDS011;62918;55.706;37.816;2023-04-07T01:04:04;4.38;;;1.50;;
74469;SDS011;62918;55.706;37.816;2023-04-07T01:04:53;4.55;;;1.77;;
74469;SDS011;62918;55.706;37.816;2023-04-07T01:05:38;2.88;;;1.30;;
74469;SDS011;62918;55.706;37.816;2023-04-07T01:06:13;4.03;;;1.50;;
74469;SDS011;62918;55.706;37.816;2023-04-07T01:06:47;2.70;;;1.13;;
74469;SDS011;62918;55.706;37.816;2023-04-07T01:07:22;3.65;;;1.20;;
74469;SDS011;62918;55.706;37.816;2023-04-07T01:08:10;3.30;;;1.15;;
74469;SDS011;62918;55.706;37.816;2023-04-07T01:09:57;4.75;;;0.90;;
74469;SDS011;62918;55.706;37.816;2023-04-07T01:11:19;3.95;;;1.00;;
74469;SDS011;62918;55.706;37.816;2023-04-07T01:14:21;2.63;;;1.10;;
74469;SDS011;62918;55.706;37.816;2023-04-07T01:14:54;3.65;;;1.13;;
74469;SDS011;62918;55.706;37.816;2023-04-07T01:15:29;3.42;;;1.13;;
74469;SDS011;62918;55.706;37.816;2023-04-07T01:16:03;2.55;;;0.95;;
74469;SDS011;62918;55.706;37.816;2023-04-07T01:16:49;3.92;;;1.17;;
74469;SDS011;62918;55.706;37.816;2023-04-07T01:17:21;4.15;;;1.38;;
74469;SDS011;62918;55.706;37.816;2023-04-07T01:17:58;3.33;;;1.20;;
74469;SDS011;62918;55.706;37.816;2023-04-07T01:18:35;5.18;;;1.33;;
74469;SDS011;62918;55.706;37.816;2023-04-07T01:20:02;2.55;;;1.20;;
74469;SDS011;62918;55.706;37.816;2023-04-07T01:20:37;4.53;;;1.20;;
74469;SDS011;62918;55.706;37.816;2023-04-07T01:21:10;3.60;;;0.90;;
74469;SDS011;62918;55.706;37.816;2023-04-07T01:21:44;7.63;;;1.25;;
74469;SDS011;62918;55.706;37.816;2023-04-07T01:22:22;4.63;;;1.00;;
74469;SDS011;62918;55.706;37.816;2023-04-07T01:22:56;3.10;;;0.90;;
74469;SDS011;62918;55.706;37.816;2023-04-07T01:23:36;6.78;;;1.25;;
74469;SDS011;62918;55.706;37.816;2023-04-07T01:24:25;3.88;;;0.90;;
74469;SDS011;62918;55.706;37.816;2023-04-07T01:25:21;3.30;;;1.10;;
74469;SDS011;62918;55.706;37.816;2023-04-07T01:25:53;6.22;;;1.20;;
74469;SDS011;62918;55.706;37.816;2023-04-07T01:26:49;3.13;;;0.68;;
74469;SDS011;62918;55.706;37.816;2023-04-07T01:29:06;4.63;;;1.10;;
74469;SDS011;62918;55.706;37.816;2023-04-07T01:29:50;4.03;;;1.10;;
74469;SDS011;62918;55.706;37.816;2023-04-07T01:30:22;6.50;;;1.17;;
74469;SDS011;62918;55.706;37.816;2023-04-07T01:30:57;4.15;;;1.20;;
74469;SDS011;62918;55.706;37.816;2023-04-07T01:31:30;3.88;;;0.95;;
74469;SDS011;62918;55.706;37.816;2023-04-07T01:32:03;3.38;;;1.27;;
74469;SDS011;62918;55.706;37.816;2023-04-07T01:32:38;4.55;;;1.30;;
74469;SDS011;62918;55.706;37.816;2023-04-07T01:33:10;2.88;;;0.93;;
74469;SDS011;62918;55.706;37.816;2023-04-07T01:33:44;3.50;;;0.80;;
74469;SDS011;62918;55.706;37.816;2023-04-07T01:34:15;6.00;;;1.05;;
74469;SDS011;62918;55.706;37.816;2023-04-07T01:34:50;3.22;;;1.00;;
74469;SDS011;62918;55.706;37.816;2023-04-07T01:35:22;4.40;;;1.10;;
74469;SDS011;62918;55.706;37.816;2023-04-07T01:35:54;2.70;;;1.30;;
74469;SDS011;62918;55.706;37.816;2023-04-07T01:36:27;4.07;;;1.27;;
74469;SDS011;62918;55.706;37.816;2023-04-07T01:37:00;3.47;;;1.02;;
74469;SDS011;62918;55.706;37.816;2023-04-07T01:37:31;4.28;;;0.90;;
74469;SDS011;62918;55.706;37.816;2023-04-07T01:38:04;5.28;;;1.38;;
74469;SDS011;62918;55.706;37.816;2023-04-07T01:38:36;3.85;;;1.40;;
74469;SDS011;62918;55.706;37.816;2023-04-07T01:39:08;3.85;;;1.50;;
74469;SDS011;62918;55.706;37.816;2023-04-07T01:39:40;3.13;;;1.13;;
74469;SDS011;62918;55.706;37.816;2023-04-07T01:40:11;3.95;;;1.15;;
74469;SDS011;62918;55.706;37.816;2023-04-07T01:40:42;4.40;;;1.60;;
74469;SDS011;62918;55.706;37.816;2023-04-07T01:41:46;4.68;;;1.02;;
74469;SDS011;62918;55.706;37.816;2023-04-07T01:42:19;2.47;;;0.85;;
74469;SDS011;62918;55.706;37.816;2023-04-07T01:42:51;3.45;;;1.23;;
74469;SDS011;62918;55.706;37.816;2023-04-07T01:43:22;3.88;;;1.13;;
74469;SDS011;62918;55.706;37.816;2023-04-07T01:43:55;6.93;;;1.30;;
74469;SDS011;62918;55.706;37.816;2023-04-07T01:44:27;4.45;;;1.23;;
74469;SDS011;62918;55.706;37.816;2023-04-07T01:44:59;5.47;;;1.33;;
74469;SDS011;62918;55.706;37.816;2023-04-07T01:45:31;3.13;;;1.17;;
74469;SDS011;62918;55.706;37.816;2023-04-07T01:46:05;4.65;;;1.10;;
74469;SDS011;62918;55.706;37.816;2023-04-07T01:46:35;5.22;;;1.17;;
74469;SDS011;62918;55.706;37.816;2023-04-07T01:47:06;4.60;;;1.10;;
74469;SDS011;62918;55.706;37.816;2023-04-07T01:47:37;4.95;;;1.13;;
74469;SDS011;62918;55.706;37.816;2023-04-07T01:48:09;3.55;;;1.23;;
74469;SDS011;62918;55.706;37.816;2023-04-07T01:48:40;3.72;;;1.02;;
74469;SDS011;62918;55.706;37.816;2023-04-07T01:49:12;3.25;;;1.20;;
74469;SDS011;62918;55.706;37.816;2023-04-07T01:49:43;7.40;;;1.20;;
74469;SDS011;62918;55.706;37.816;2023-04-07T01:50:15;5.00;;;1.40;;
74469;SDS011;62918;55.706;37.816;2023-04-07T01:50:46;3.55;;;1.00;;
74469;SDS011;62918;55.706;37.816;2023-04-07T01:51:19;2.45;;;1.13;;
74469;SDS011;62918;55.706;37.816;2023-04-07T01:51:51;4.13;;;1.17;;
74469;SDS011;62918;55.706;37.816;2023-04-07T01:52:24;6.63;;;1.42;;
74469;SDS011;62918;55.706;37.816;2023-04-07T01:53:26;4.82;;;1.70;;
74469;SDS011;62918;55.706;37.816;2023-04-07T01:53:57;5.90;;;2.20;;
74469;SDS011;62918;55.706;37.816;2023-04-07T01:54:28;4.60;;;2.03;;
74469;SDS011;62918;55.706;37.816;2023-04-07T01:55:01;7.25;;;1.80;;
74469;SDS011;62918;55.706;37.816;2023-04-07T01:55:33;2.38;;;0.95;;
74469;SDS011;62918;55.706;37.816;2023-04-07T01:56:04;6.28;;;1.80;;
74469;SDS011;62918;55.706;37.816;2023-04-07T01:56:35;3.38;;;1.52;;
74469;SDS011;62918;55.706;37.816;2023-04-07T01:57:06;5.65;;;1.92;;
74469;SDS011;62918;55.706;37.816;2023-04-07T01:57:37;4.57;;;1.42;;
74469;SDS011;62918;55.706;37.816;2023-04-07T01:58:07;2.95;;;1.40;;
74469;SDS011;62918;55.706;37.816;2023-04-07T01:58:38;4.57;;;1.40;;
74469;SDS011;62918;55.706;37.816;2023-04-07T01:59:09;7.65;;;1.52;;
74469;SDS011;62918;55.706;37.816;2023-04-07T01:59:40;5.40;;;1.25;;
74469;SDS011;62918;55.706;37.816;2023-04-07T02:00:10;10.77;;;1.50;;
74469;SDS011;62918;55.706;37.816;2023-04-07T02:00:41;4.68;;;1.33;;
74469;SDS011;62918;55.706;37.816;2023-04-07T02:01:14;4.00;;;1.50;;
74469;SDS011;62918;55.706;37.816;2023-04-07T02:01:45;3.47;;;1.40;;
74469;SDS011;62918;55.706;37.816;2023-04-07T02:02:17;6.45;;;1.73;;
74469;SDS011;62918;55.706;37.816;2023-04-07T02:02:48;5.60;;;2.03;;
74469;SDS011;62918;55.706;37.816;2023-04-07T02:03:30;4.07;;;1.98;;
74469;SDS011;62918;55.706;37.816;2023-04-07T02:05:03;6.70;;;2.35;;
74469;SDS011;62918;55.706;37.816;2023-04-07T02:05:38;7.35;;;2.10;;
74469;SDS011;62918;55.706;37.816;2023-04-07T02:06:11;5.22;;;2.20;;
74469;SDS011;62918;55.706;37.816;2023-04-07T02:06:52;6.22;;;2.60;;
74469;SDS011;62918;55.706;37.816;2023-04-07T02:08:02;5.63;;;1.45;;
74469;SDS011;62918;55.706;37.816;2023-04-07T02:08:35;3.65;;;1.30;;
74469;SDS011;62918;55.706;37.816;2023-04-07T02:09:11;3.63;;;1.48;;
74469;SDS011;62918;55.706;37.816;2023-04-07T02:09:44;3.95;;;1.42;;
74469;SDS011;62918;55.706;37.816;2023-04-07T02:10:19;4.45;;;1.35;;
74469;SDS011;62918;55.706;37.816;2023-04-07T02:10:52;6.05;;;1.25;;
74469;SDS011;62918;55.706;37.816;2023-04-07T02:11:26;4.53;;;1.75;;
74469;SDS011;62918;55.706;37.816;2023-04-07T02:12:01;6.68;;;1.30;;
74469;SDS011;62918;55.706;37.816;2023-04-07T02:12:35;5.07;;;1.20;;
74469;SDS011;62918;55.706;37.816;2023-04-07T02:13:07;6.22;;;1.50;;
74469;SDS011;62918;55.706;37.816;2023-04-07T02:13:42;3.92;;;1.35;;
74469;SDS011;62918;55.706;37.816;2023-04-07T02:14:15;6.35;;;1.20;;
74469;SDS011;62918;55.706;37.816;2023-04-07T02:14:46;7.47;;;1.38;;
74469;SDS011;62918;55.706;37.816;2023-04-07T02:15:17;3.40;;;1.10;;
74469;SDS011;62918;55.706;37.816;2023-04-07T02:15:49;7.50;;;1.98;;
74469;SDS011;62918;55.706;37.816;2023-04-07T02:16:19;4.55;;;1.90;;
74469;SDS011;62918;55.706;37.816;2023-04-07T02:16:51;4.55;;;1.35;;
74469;SDS011;62918;55.706;37.816;2023-04-07T02:17:23;3.22;;;1.52;;
74469;SDS011;62918;55.706;37.816;2023-04-07T02:17:57;7.15;;;1.48;;
74469;SDS011;62918;55.706;37.816;2023-04-07T02:18:29;4.30;;;1.60;;
74469;SDS011;62918;55.706;37.816;2023-04-07T02:19:01;3.25;;;1.23;;
74469;SDS011;62918;55.706;37.816;2023-04-07T02:20:05;5.13;;;1.42;;
74469;SDS011;62918;55.706;37.816;2023-04-07T02:20:39;7.05;;;1.88;;
74469;SDS011;62918;55.706;37.816;2023-04-07T02:21:13;4.38;;;1.95;;
74469;SDS011;62918;55.706;37.816;2023-04-07T02:21:45;3.60;;;1.80;;
74469;SDS011;62918;55.706;37.816;2023-04-07T02:22:17;7.65;;;1.75;;
74469;SDS011;62918;55.706;37.816;2023-04-07T02:22:48;5.80;;;2.03;;
74469;SDS011;62918;55.706;37.816;2023-04-07T02:23:19;5.20;;;2.03;;
74469;SDS011;62918;55.706;37.816;2023-04-07T02:23:50;4.45;;;1.88;;
74469;SDS011;62918;55.706;37.816;2023-04-07T02:24:21;4.93;;;2.20;;
74469;SDS011;62918;55.706;37.816;2023-04-07T02:24:51;4.43;;;2.47;;
74469;SDS011;62918;55.706;37.816;2023-04-07T02:25:26;6.40;;;3.72;;
74469;SDS011;62918;55.706;37.816;2023-04-07T02:25:58;6.85;;;2.67;;
74469;SDS011;62918;55.706;37.816;2023-04-07T02:26:32;5.55;;;2.50;;
74469;SDS011;62918;55.706;37.816;2023-04-07T02:27:04;8.07;;;2.35;;
74469;SDS011;62918;55.706;37.816;2023-04-07T02:27:35;6.30;;;2.55;;
74469;SDS011;62918;55.706;37.816;2023-04-07T02:28:05;5.20;;;2.65;;
74469;SDS011;62918;55.706;37.816;2023-04-07T02:28:36;3.67;;;2.03;;
74469;SDS011;62918;55.706;37.816;2023-04-07T02:29:07;6.07;;;1.70;;
74469;SDS011;62918;55.706;37.816;2023-04-07T02:29:37;4.75;;;2.10;;
74469;SDS011;62918;55.706;37.816;2023-04-07T02:30:08;3.85;;;1.80;;
74469;SDS011;62918;55.706;37.816;2023-04-07T02:30:39;3.80;;;1.88;;
74469;SDS011;62918;55.706;37.816;2023-04-07T02:31:10;6.55;;;2.58;;
74469;SDS011;62918;55.706;37.816;2023-04-07T02:31:42;6.03;;;2.60;;
74469;SDS011;62918;55.706;37.816;2023-04-07T02:32:13;3.88;;;2.28;;
74469;SDS011;62918;55.706;37.816;2023-04-07T02:32:44;9.93;;;3.35;;
74469;SDS011;62918;55.706;37.816;2023-04-07T02:33:14;6.70;;;2.63;;
74469;SDS011;62918;55.706;37.816;2023-04-07T02:33:45;4.07;;;2.13;;
74469;SDS011;62918;55.706;37.816;2023-04-07T02:34:16;4.68;;;2.10;;
74469;SDS011;62918;55.706;37.816;2023-04-07T02:34:46;5.63;;;2.90;;
74469;SDS011;62918;55.706;37.816;2023-04-07T02:35:17;8.02;;;3.17;;
74469;SDS011;62918;55.706;37.816;2023-04-07T02:35:47;7.60;;;3.33;;
74469;SDS011;62918;55.706;37.816;2023-04-07T02:36:18;4.43;;;2.60;;
74469;SDS011;62918;55.706;37.816;2023-04-07T02:36:49;5.35;;;2.38;;
74469;SDS011;62918;55.706;37.816;2023-04-07T02:37:19;6.88;;;1.92;;
74469;SDS011;62918;55.706;37.816;2023-04-07T02:37:50;4.45;;;2.00;;
74469;SDS011;62918;55.706;37.816;2023-04-07T02:38:21;5.63;;;1.67;;
74469;SDS011;62918;55.706;37.816;2023-04-07T02:38:51;4.38;;;1.63;;
74469;SDS011;62918;55.706;37.816;2023-04-07T02:39:22;2.78;;;1.02;;
74469;SDS011;62918;55.706;37.816;2023-04-07T02:39:52;3.85;;;1.48;;
74469;SDS011;62918;55.706;37.816;2023-04-07T02:40:23;5.72;;;1.50;;
74469;SDS011;62918;55.706;37.816;2023-04-07T02:40:53;5.05;;;1.35;;
74469;SDS011;62918;55.706;37.816;2023-04-07T02:41:24;5.93;;;1.20;;
74469;SDS011;62918;55.706;37.816;2023-04-07T02:42:00;5.93;;;1.40;;
74469;SDS011;62918;55.706;37.816;2023-04-07T02:42:31;5.63;;;1.55;;
74469;SDS011;62918;55.706;37.816;2023-04-07T02:43:01;3.20;;;1.40;;
74469;SDS011;62918;55.706;37.816;2023-04-07T02:43:34;5.10;;;1.70;;
74469;SDS011;62918;55.706;37.816;2023-04-07T02:44:04;4.35;;;1.40;;
74469;SDS011;62918;55.706;37.816;2023-04-07T02:44:35;4.53;;;1.63;;
74469;SDS011;62918;55.706;37.816;2023-04-07T02:45:06;3.47;;;1.25;;
74469;SDS011;62918;55.706;37.816;2023-04-07T02:45:37;3.00;;;1.63;;
74469;SDS011;62918;55.706;37.816;2023-04-07T02:46:08;4.68;;;1.77;;
74469;SDS011;62918;55.706;37.816;2023-04-07T02:46:39;6.20;;;1.60;;
74469;SDS011;62918;55.706;37.816;2023-04-07T02:47:10;4.90;;;2.03;;
74469;SDS011;62918;55.706;37.816;2023-04-07T02:47:40;2.90;;;1.20;;
74469;SDS011;62918;55.706;37.816;2023-04-07T02:48:11;6.07;;;1.55;;
74469;SDS011;62918;55.706;37.816;2023-04-07T02:48:42;6.75;;;1.77;;
74469;SDS011;62918;55.706;37.816;2023-04-07T02:49:12;4.78;;;1.45;;
74469;SDS011;62918;55.706;37.816;2023-04-07T02:49:43;3.90;;;1.63;;
74469;SDS011;62918;55.706;37.816;2023-04-07T02:50:14;6.15;;;1.45;;
74469;SDS011;62918;55.706;37.816;2023-04-07T02:50:45;4.53;;;1.35;;
74469;SDS011;62918;55.706;37.816;2023-04-07T02:51:15;6.18;;;1.67;;
74469;SDS011;62918;55.706;37.816;2023-04-07T02:51:46;5.07;;;1.75;;
74469;SDS011;62918;55.706;37.816;2023-04-07T02:52:16;6.20;;;1.95;;
74469;SDS011;62918;55.706;37.816;2023-04-07T02:52:47;5.38;;;1.83;;
74469;SDS011;62918;55.706;37.816;2023-04-07T02:53:17;4.53;;;1.88;;
74469;SDS011;62918;55.706;37.816;2023-04-07T02:53:48;4.88;;;1.50;;
74469;SDS011;62918;55.706;37.816;2023-04-07T02:54:19;5.57;;;1.88;;
74469;SDS011;62918;55.706;37.816;2023-04-07T02:54:50;7.60;;;1.80;;
74469;SDS011;62918;55.706;37.816;2023-04-07T02:55:21;4.88;;;1.75;;
74469;SDS011;62918;55.706;37.816;2023-04-07T02:55:51;5.93;;;2.10;;
74469;SDS011;62918;55.706;37.816;2023-04-07T02:56:22;5.03;;;1.63;;
74469;SDS011;62918;55.706;37.816;2023-04-07T02:56:53;5.57;;;1.83;;
74469;SDS011;62918;55.706;37.816;2023-04-07T02:57:23;6.07;;;2.25;;
74469;SDS011;62918;55.706;37.816;2023-04-07T02:57:54;7.10;;;1.77;;
74469;SDS011;62918;55.706;37.816;2023-04-07T02:58:25;7.18;;;1.80;;
74469;SDS011;62918;55.706;37.816;2023-04-07T02:58:55;5.00;;;1.80;;
74469;SDS011;62918;55.706;37.816;2023-04-07T02:59:26;5.35;;;1.90;;
74469;SDS011;62918;55.706;37.816;2023-04-07T02:59:56;8.20;;;2.28;;
74469;SDS011;62918;55.706;37.816;2023-04-07T03:00:27;4.03;;;1.80;;
74469;SDS011;62918;55.706;37.816;2023-04-07T03:00:58;5.65;;;1.98;;
74469;SDS011;62918;55.706;37.816;2023-04-07T03:01:28;4.13;;;2.05;;
74469;SDS011;62918;55.706;37.816;2023-04-07T03:01:59;4.57;;;1.70;;
74469;SDS011;62918;55.706;37.816;2023-04-07T03:02:30;6.40;;;2.08;;
74469;SDS011;62918;55.706;37.816;2023-04-07T03:03:00;5.88;;;2.08;;
74469;SDS011;62918;55.706;37.816;2023-04-07T03:03:31;5.53;;;1.88;;
74469;SDS011;62918;55.706;37.816;2023-04-07T03:04:02;4.72;;;1.80;;
74469;SDS011;62918;55.706;37.816;2023-04-07T03:04:33;5.70;;;1.80;;
74469;SDS011;62918;55.706;37.816;2023-04-07T03:05:04;6.55;;;1.85;;
74469;SDS011;62918;55.706;37.816;2023-04-07T03:05:35;3.80;;;2.13;;
74469;SDS011;62918;55.706;37.816;2023-04-07T03:06:06;5.15;;;1.83;;
74469;SDS011;62918;55.706;37.816;2023-04-07T03:06:37;8.93;;;1.50;;
74469;SDS011;62918;55.706;37.816;2023-04-07T03:07:13;5.40;;;2.00;;
74469;SDS011;62918;55.706;37.816;2023-04-07T03:07:43;5.72;;;1.63;;
74469;SDS011;62918;55.706;37.816;2023-04-07T03:08:14;5.32;;;2.00;;
74469;SDS011;62918;55.706;37.816;2023-04-07T03:08:45;5.80;;;1.83;;
74469;SDS011;62918;55.706;37.816;2023-04-07T03:09:15;4.38;;;1.92;;
74469;SDS011;62918;55.706;37.816;2023-04-07T03:09:46;6.10;;;1.98;;
74469;SDS011;62918;55.706;37.816;2023-04-07T03:10:17;6.88;;;1.80;;
74469;SDS011;62918;55.706;37.816;2023-04-07T03:10:47;5.10;;;1.52;;
74469;SDS011;62918;55.706;37.816;2023-04-07T03:11:18;3.90;;;1.73;;
74469;SDS011;62918;55.706;37.816;2023-04-07T03:11:49;4.65;;;1.67;;
74469;SDS011;62918;55.706;37.816;2023-04-07T03:12:19;4.05;;;1.70;;
74469;SDS011;62918;55.706;37.816;2023-04-07T03:12:50;7.00;;;2.00;;
74469;SDS011;62918;55.706;37.816;2023-04-07T03:13:21;3.33;;;1.88;;
74469;SDS011;62918;55.706;37.816;2023-04-07T03:13:52;6.28;;;1.75;;
74469;SDS011;62918;55.706;37.816;2023-04-07T03:14:22;5.55;;;2.15;;
74469;SDS011;62918;55.706;37.816;2023-04-07T03:14:53;6.45;;;1.58;;
74469;SDS011;62918;55.706;37.816;2023-04-07T03:15:23;6.03;;;1.83;;
74469;SDS011;62918;55.706;37.816;2023-04-07T03:15:54;4.55;;;1.95;;
74469;SDS011;62918;55.706;37.816;2023-04-07T03:16:25;5.18;;;1.48;;
74469;SDS011;62918;55.706;37.816;2023-04-07T03:16:56;4.82;;;1.75;;
74469;SDS011;62918;55.706;37.816;2023-04-07T03:17:27;5.07;;;1.83;;
74469;SDS011;62918;55.706;37.816;2023-04-07T03:17:57;5.53;;;1.75;;
74469;SDS011;62918;55.706;37.816;2023-04-07T03:18:28;4.68;;;1.85;;
74469;SDS011;62918;55.706;37.816;2023-04-07T03:18:59;4.47;;;1.48;;
74469;SDS011;62918;55.706;37.816;2023-04-07T03:19:29;4.93;;;1.55;;
74469;SDS011;62918;55.706;37.816;2023-04-07T03:20:00;4.60;;;1.80;;
74469;SDS011;62918;55.706;37.816;2023-04-07T03:20:31;5.97;;;1.50;;
74469;SDS011;62918;55.706;37.816;2023-04-07T03:21:01;5.22;;;1.80;;
74469;SDS011;62918;55.706;37.816;2023-04-07T03:21:32;4.75;;;1.85;;
74469;SDS011;62918;55.706;37.816;2023-04-07T03:22:03;9.65;;;2.70;;